sensor_id;sensor_type;location;lat;lon;timestamp;temperature;humidity
31819;DHT22;18384;48.860;9.188;2023-04-08T00:00:13;9.90;99.90
31819;DHT22;18384;48.860;9.188;2023-04-08T00:02:39;9.90;99.90
31819;DHT22;18384;48.860;9.188;2023-04-08T00:05:06;9.90;99.90
31819;DHT22;18384;48.860;9.188;2023-04-08T00:07:33;9.90;99.90
31819;DHT22;18384;48.860;9.188;2023-04-08T00:09:58;9.90;99.90
31819;DHT22;18384;48.860;9.188;2023-04-08T00:12:25;9.90;99.90
31819;DHT22;18384;48.860;9.188;2023-04-08T00:14:51;9.90;99.90
31819;DHT22;18384;48.860;9.188;2023-04-08T00:17:17;9.90;99.90
31819;DHT22;18384;48.860;9.188;2023-04-08T00:19:44;9.90;99.90
31819;DHT22;18384;48.860;9.188;2023-04-08T00:22:10;9.90;99.90
31819;DHT22;18384;48.860;9.188;2023-04-08T00:24:36;9.90;99.90
31819;DHT22;18384;48.860;9.188;2023-04-08T00:27:02;9.90;99.90
31819;DHT22;18384;48.860;9.188;2023-04-08T00:29:28;9.90;99.90
31819;DHT22;18384;48.860;9.188;2023-04-08T00:31:55;9.80;99.90
31819;DHT22;18384;48.860;9.188;2023-04-08T00:34:21;8.70;99.90
31819;DHT22;18384;48.860;9.188;2023-04-08T00:36:47;9.90;99.90
31819;DHT22;18384;48.860;9.188;2023-04-08T00:39:14;9.90;99.90
31819;DHT22;18384;48.860;9.188;2023-04-08T00:41:40;10.10;99.90
31819;DHT22;18384;48.860;9.188;2023-04-08T00:44:07;9.80;99.90
31819;DHT22;18384;48.860;9.188;2023-04-08T00:46:36;9.70;99.90
31819;DHT22;18384;48.860;9.188;2023-04-08T00:49:04;9.70;99.90
31819;DHT22;18384;48.860;9.188;2023-04-08T00:51:35;9.70;99.90
31819;DHT22;18384;48.860;9.188;2023-04-08T00:54:04;9.70;99.90
31819;DHT22;18384;48.860;9.188;2023-04-08T00:56:31;9.70;99.90
31819;DHT22;18384;48.860;9.188;2023-04-08T00:58:59;9.70;99.90
31819;DHT22;18384;48.860;9.188;2023-04-08T01:01:46;9.70;99.90
31819;DHT22;18384;48.860;9.188;2023-04-08T01:05:13;9.70;99.90
31819;DHT22;18384;48.860;9.188;2023-04-08T01:07:49;9.70;99.90
31819;DHT22;18384;48.860;9.188;2023-04-08T01:10:38;9.70;99.90
31819;DHT22;18384;48.860;9.188;2023-04-08T01:13:23;9.70;99.90
31819;DHT22;18384;48.860;9.188;2023-04-08T01:15:52;9.70;99.90
31819;DHT22;18384;48.860;9.188;2023-04-08T01:18:25;9.70;99.90
31819;DHT22;18384;48.860;9.188;2023-04-08T01:20:52;9.70;99.90
31819;DHT22;18384;48.860;9.188;2023-04-08T01:23:50;9.70;99.90
31819;DHT22;18384;48.860;9.188;2023-04-08T01:26:51;9.70;99.90
31819;DHT22;18384;48.860;9.188;2023-04-08T01:29:18;9.70;99.90
31819;DHT22;18384;48.860;9.188;2023-04-08T01:31:49;9.70;99.90
31819;DHT22;18384;48.860;9.188;2023-04-08T01:34:23;9.70;99.90
31819;DHT22;18384;48.860;9.188;2023-04-08T01:36:50;9.70;99.90
31819;DHT22;18384;48.860;9.188;2023-04-08T01:39:18;9.70;99.90
31819;DHT22;18384;48.860;9.188;2023-04-08T01:41:46;9.70;99.90
31819;DHT22;18384;48.860;9.188;2023-04-08T01:44:17;9.70;99.90
31819;DHT22;18384;48.860;9.188;2023-04-08T01:46:46;9.70;99.90
31819;DHT22;18384;48.860;9.188;2023-04-08T01:49:14;9.70;99.90
31819;DHT22;18384;48.860;9.188;2023-04-08T01:51:40;9.70;99.90
31819;DHT22;18384;48.860;9.188;2023-04-08T01:54:08;9.70;99.90
31819;DHT22;18384;48.860;9.188;2023-04-08T01:56:36;9.70;99.90
31819;DHT22;18384;48.860;9.188;2023-04-08T01:59:12;9.70;99.90
31819;DHT22;18384;48.860;9.188;2023-04-08T02:01:40;9.60;99.90
31819;DHT22;18384;48.860;9.188;2023-04-08T02:04:10;9.80;99.90
31819;DHT22;18384;48.860;9.188;2023-04-08T02:06:38;9.70;99.90
31819;DHT22;18384;48.860;9.188;2023-04-08T02:09:04;9.70;99.90
31819;DHT22;18384;48.860;9.188;2023-04-08T02:11:30;9.70;99.90
31819;DHT22;18384;48.860;9.188;2023-04-08T02:13:57;9.70;99.90
31819;DHT22;18384;48.860;9.188;2023-04-08T02:16:52;9.70;99.90
31819;DHT22;18384;48.860;9.188;2023-04-08T02:19:29;9.70;99.90
31819;DHT22;18384;48.860;9.188;2023-04-08T02:22:17;9.70;99.90
31819;DHT22;18384;48.860;9.188;2023-04-08T02:24:49;9.70;99.90
31819;DHT22;18384;48.860;9.188;2023-04-08T02:27:16;9.60;99.90
31819;DHT22;18384;48.860;9.188;2023-04-08T02:29:44;9.60;99.90
31819;DHT22;18384;48.860;9.188;2023-04-08T02:32:11;9.60;99.90
31819;DHT22;18384;48.860;9.188;2023-04-08T02:34:39;9.50;99.90
31819;DHT22;18384;48.860;9.188;2023-04-08T02:37:07;9.50;99.90
31819;DHT22;18384;48.860;9.188;2023-04-08T02:39:34;9.60;99.90
31819;DHT22;18384;48.860;9.188;2023-04-08T02:42:00;9.50;99.90
31819;DHT22;18384;48.860;9.188;2023-04-08T02:44:26;9.60;99.90
31819;DHT22;18384;48.860;9.188;2023-04-08T02:46:52;9.50;99.90
31819;DHT22;18384;48.860;9.188;2023-04-08T02:49:18;9.50;99.90
31819;DHT22;18384;48.860;9.188;2023-04-08T02:51:44;9.50;99.90
31819;DHT22;18384;48.860;9.188;2023-04-08T02:54:10;9.50;99.90
31819;DHT22;18384;48.860;9.188;2023-04-08T02:56:37;9.50;99.90
31819;DHT22;18384;48.860;9.188;2023-04-08T02:59:03;9.50;99.90
31819;DHT22;18384;48.860;9.188;2023-04-08T03:01:29;9.50;99.90
31819;DHT22;18384;48.860;9.188;2023-04-08T03:03:55;9.40;99.90
31819;DHT22;18384;48.860;9.188;2023-04-08T03:06:21;9.40;99.90
31819;DHT22;18384;48.860;9.188;2023-04-08T03:08:48;9.40;99.90
31819;DHT22;18384;48.860;9.188;2023-04-08T03:11:14;9.40;99.90
31819;DHT22;18384;48.860;9.188;2023-04-08T03:13:40;9.40;99.90
31819;DHT22;18384;48.860;9.188;2023-04-08T03:16:06;9.40;99.90
31819;DHT22;18384;48.860;9.188;2023-04-08T03:18:32;9.40;99.90
31819;DHT22;18384;48.860;9.188;2023-04-08T03:20:58;9.40;99.90
31819;DHT22;18384;48.860;9.188;2023-04-08T03:23:25;9.40;99.90
31819;DHT22;18384;48.860;9.188;2023-04-08T03:25:52;9.40;99.90
31819;DHT22;18384;48.860;9.188;2023-04-08T03:28:18;9.40;99.90
31819;DHT22;18384;48.860;9.188;2023-04-08T03:30:44;9.40;99.90
31819;DHT22;18384;48.860;9.188;2023-04-08T03:33:10;9.40;99.90
31819;DHT22;18384;48.860;9.188;2023-04-08T03:35:36;9.40;99.90
31819;DHT22;18384;48.860;9.188;2023-04-08T03:38:03;9.40;99.90
31819;DHT22;18384;48.860;9.188;2023-04-08T03:40:29;9.40;99.90
31819;DHT22;18384;48.860;9.188;2023-04-08T03:42:55;9.40;99.90
31819;DHT22;18384;48.860;9.188;2023-04-08T03:45:21;9.40;99.90
31819;DHT22;18384;48.860;9.188;2023-04-08T03:47:47;9.20;99.90
31819;DHT22;18384;48.860;9.188;2023-04-08T03:50:14;9.00;99.90
31819;DHT22;18384;48.860;9.188;2023-04-08T03:52:40;9.40;99.90
31819;DHT22;18384;48.860;9.188;2023-04-08T03:55:06;9.40;99.90
31819;DHT22;18384;48.860;9.188;2023-04-08T03:57:33;9.30;99.90
31819;DHT22;18384;48.860;9.188;2023-04-08T03:59:59;9.30;99.90
31819;DHT22;18384;48.860;9.188;2023-04-08T04:02:25;9.30;99.90
31819;DHT22;18384;48.860;9.188;2023-04-08T04:04:51;9.30;99.90
31819;DHT22;18384;48.860;9.188;2023-04-08T04:07:17;9.30;99.90
31819;DHT22;18384;48.860;9.188;2023-04-08T04:09:43;9.20;99.90
31819;DHT22;18384;48.860;9.188;2023-04-08T04:12:09;9.20;99.90
31819;DHT22;18384;48.860;9.188;2023-04-08T04:14:35;9.10;99.90
31819;DHT22;18384;48.860;9.188;2023-04-08T04:17:02;9.00;99.90
31819;DHT22;18384;48.860;9.188;2023-04-08T04:19:31;9.00;99.90
31819;DHT22;18384;48.860;9.188;2023-04-08T04:21:57;8.90;99.90
31819;DHT22;18384;48.860;9.188;2023-04-08T04:24:23;8.80;99.90
31819;DHT22;18384;48.860;9.188;2023-04-08T04:26:49;8.80;99.90
31819;DHT22;18384;48.860;9.188;2023-04-08T04:29:15;8.80;99.90
31819;DHT22;18384;48.860;9.188;2023-04-08T04:31:41;8.80;99.90
31819;DHT22;18384;48.860;9.188;2023-04-08T04:34:07;8.80;99.90
31819;DHT22;18384;48.860;9.188;2023-04-08T04:36:34;8.80;99.90
31819;DHT22;18384;48.860;9.188;2023-04-08T04:39:00;8.70;99.90
31819;DHT22;18384;48.860;9.188;2023-04-08T04:41:26;8.70;99.90
31819;DHT22;18384;48.860;9.188;2023-04-08T04:43:52;8.70;99.90
31819;DHT22;18384;48.860;9.188;2023-04-08T04:46:18;8.60;99.90
31819;DHT22;18384;48.860;9.188;2023-04-08T04:48:44;8.60;99.90
31819;DHT22;18384;48.860;9.188;2023-04-08T04:51:10;8.60;99.90
31819;DHT22;18384;48.860;9.188;2023-04-08T04:53:37;8.60;99.90
31819;DHT22;18384;48.860;9.188;2023-04-08T04:56:03;8.60;99.90
31819;DHT22;18384;48.860;9.188;2023-04-08T04:58:29;8.50;99.90
31819;DHT22;18384;48.860;9.188;2023-04-08T05:00:55;8.60;99.90
31819;DHT22;18384;48.860;9.188;2023-04-08T05:03:21;8.60;99.90
31819;DHT22;18384;48.860;9.188;2023-04-08T05:05:51;8.60;99.90
31819;DHT22;18384;48.860;9.188;2023-04-08T05:08:18;8.50;99.90
31819;DHT22;18384;48.860;9.188;2023-04-08T05:10:44;8.50;99.90
31819;DHT22;18384;48.860;9.188;2023-04-08T05:13:10;8.50;99.90
31819;DHT22;18384;48.860;9.188;2023-04-08T05:15:36;8.50;99.90
31819;DHT22;18384;48.860;9.188;2023-04-08T05:18:03;8.50;99.90
31819;DHT22;18384;48.860;9.188;2023-04-08T05:20:29;8.50;99.90
31819;DHT22;18384;48.860;9.188;2023-04-08T05:22:55;8.60;99.90
31819;DHT22;18384;48.860;9.188;2023-04-08T05:25:21;8.60;99.90
31819;DHT22;18384;48.860;9.188;2023-04-08T05:27:47;8.70;99.90
31819;DHT22;18384;48.860;9.188;2023-04-08T05:30:13;8.70;99.90
31819;DHT22;18384;48.860;9.188;2023-04-08T05:32:40;8.70;99.90
31819;DHT22;18384;48.860;9.188;2023-04-08T05:35:07;8.70;99.90
31819;DHT22;18384;48.860;9.188;2023-04-08T05:37:34;8.80;99.90
31819;DHT22;18384;48.860;9.188;2023-04-08T05:40:00;8.80;99.90
31819;DHT22;18384;48.860;9.188;2023-04-08T05:42:26;8.90;99.90
31819;DHT22;18384;48.860;9.188;2023-04-08T05:44:52;8.90;99.90
31819;DHT22;18384;48.860;9.188;2023-04-08T05:47:18;9.00;99.90
31819;DHT22;18384;48.860;9.188;2023-04-08T05:49:44;9.00;99.90
31819;DHT22;18384;48.860;9.188;2023-04-08T05:52:10;9.10;99.90
31819;DHT22;18384;48.860;9.188;2023-04-08T05:54:36;9.10;99.90
31819;DHT22;18384;48.860;9.188;2023-04-08T05:57:03;9.10;99.90
31819;DHT22;18384;48.860;9.188;2023-04-08T05:59:29;9.20;99.90
31819;DHT22;18384;48.860;9.188;2023-04-08T06:01:55;9.20;99.90
31819;DHT22;18384;48.860;9.188;2023-04-08T06:04:21;9.30;99.90
31819;DHT22;18384;48.860;9.188;2023-04-08T06:06:47;9.30;99.90
31819;DHT22;18384;48.860;9.188;2023-04-08T06:09:13;9.40;99.90
31819;DHT22;18384;48.860;9.188;2023-04-08T06:11:39;9.40;99.90
31819;DHT22;18384;48.860;9.188;2023-04-08T06:14:05;9.50;99.90
31819;DHT22;18384;48.860;9.188;2023-04-08T06:16:31;8.10;99.90
31819;DHT22;18384;48.860;9.188;2023-04-08T06:18:58;9.50;99.90
31819;DHT22;18384;48.860;9.188;2023-04-08T06:21:24;9.50;99.90
31819;DHT22;18384;48.860;9.188;2023-04-08T06:23:51;9.50;99.90
31819;DHT22;18384;48.860;9.188;2023-04-08T06:26:17;9.60;99.90
31819;DHT22;18384;48.860;9.188;2023-04-08T06:28:43;9.60;99.90
31819;DHT22;18384;48.860;9.188;2023-04-08T06:31:09;9.70;99.90
31819;DHT22;18384;48.860;9.188;2023-04-08T06:33:35;9.80;99.90
31819;DHT22;18384;48.860;9.188;2023-04-08T06:36:02;9.90;99.90
31819;DHT22;18384;48.860;9.188;2023-04-08T06:38:31;9.90;99.90
31819;DHT22;18384;48.860;9.188;2023-04-08T06:41:07;9.90;99.90
31819;DHT22;18384;48.860;9.188;2023-04-08T06:43:34;9.90;99.90
31819;DHT22;18384;48.860;9.188;2023-04-08T06:46:01;9.90;99.90
31819;DHT22;18384;48.860;9.188;2023-04-08T06:48:27;9.90;99.90
31819;DHT22;18384;48.860;9.188;2023-04-08T06:50:58;9.90;99.90
31819;DHT22;18384;48.860;9.188;2023-04-08T06:53:26;10.00;99.90
31819;DHT22;18384;48.860;9.188;2023-04-08T06:55:53;10.00;99.90
31819;DHT22;18384;48.860;9.188;2023-04-08T06:58:20;10.00;99.90
31819;DHT22;18384;48.860;9.188;2023-04-08T07:00:46;10.10;99.90
31819;DHT22;18384;48.860;9.188;2023-04-08T07:03:12;10.10;99.90
31819;DHT22;18384;48.860;9.188;2023-04-08T07:05:38;10.00;99.90
31819;DHT22;18384;48.860;9.188;2023-04-08T07:08:06;10.10;99.90
31819;DHT22;18384;48.860;9.188;2023-04-08T07:10:36;10.10;99.90
31819;DHT22;18384;48.860;9.188;2023-04-08T07:13:02;10.10;99.90
31819;DHT22;18384;48.860;9.188;2023-04-08T07:15:28;10.20;99.90
31819;DHT22;18384;48.860;9.188;2023-04-08T07:17:54;10.30;99.90
31819;DHT22;18384;48.860;9.188;2023-04-08T07:20:24;10.30;99.90
31819;DHT22;18384;48.860;9.188;2023-04-08T07:22:51;10.40;99.90
31819;DHT22;18384;48.860;9.188;2023-04-08T07:25:17;10.40;99.90
31819;DHT22;18384;48.860;9.188;2023-04-08T07:27:43;10.50;99.90
31819;DHT22;18384;48.860;9.188;2023-04-08T07:30:09;10.50;99.90
31819;DHT22;18384;48.860;9.188;2023-04-08T07:32:35;10.60;99.90
31819;DHT22;18384;48.860;9.188;2023-04-08T07:35:02;10.60;99.90
31819;DHT22;18384;48.860;9.188;2023-04-08T07:37:28;10.70;99.90
31819;DHT22;18384;48.860;9.188;2023-04-08T07:39:54;10.70;99.90
31819;DHT22;18384;48.860;9.188;2023-04-08T07:42:20;10.80;99.90
31819;DHT22;18384;48.860;9.188;2023-04-08T07:44:47;10.90;99.90
31819;DHT22;18384;48.860;9.188;2023-04-08T07:47:13;10.90;99.70
31819;DHT22;18384;48.860;9.188;2023-04-08T07:49:39;10.90;99.50
31819;DHT22;18384;48.860;9.188;2023-04-08T07:52:06;11.00;99.50
31819;DHT22;18384;48.860;9.188;2023-04-08T07:54:32;11.10;99.20
31819;DHT22;18384;48.860;9.188;2023-04-08T07:57:01;11.20;99.00
31819;DHT22;18384;48.860;9.188;2023-04-08T07:59:28;11.20;99.00
31819;DHT22;18384;48.860;9.188;2023-04-08T08:01:54;11.20;98.70
31819;DHT22;18384;48.860;9.188;2023-04-08T08:04:20;11.30;98.60
31819;DHT22;18384;48.860;9.188;2023-04-08T08:06:46;11.20;98.60
31819;DHT22;18384;48.860;9.188;2023-04-08T08:09:13;11.30;98.60
31819;DHT22;18384;48.860;9.188;2023-04-08T08:11:39;11.30;98.40
31819;DHT22;18384;48.860;9.188;2023-04-08T08:14:05;11.30;98.40
31819;DHT22;18384;48.860;9.188;2023-04-08T08:16:32;11.40;98.10
31819;DHT22;18384;48.860;9.188;2023-04-08T08:18:58;11.50;97.90
31819;DHT22;18384;48.860;9.188;2023-04-08T08:21:24;11.50;97.20
31819;DHT22;18384;48.860;9.188;2023-04-08T08:23:54;11.50;97.40
31819;DHT22;18384;48.860;9.188;2023-04-08T08:26:21;11.40;97.50
31819;DHT22;18384;48.860;9.188;2023-04-08T08:28:47;11.40;97.60
31819;DHT22;18384;48.860;9.188;2023-04-08T08:31:13;11.40;97.60
31819;DHT22;18384;48.860;9.188;2023-04-08T08:33:39;11.50;97.60
31819;DHT22;18384;48.860;9.188;2023-04-08T08:36:05;11.60;97.10
31819;DHT22;18384;48.860;9.188;2023-04-08T08:38:32;11.60;97.20
31819;DHT22;18384;48.860;9.188;2023-04-08T08:40:59;11.70;96.90
31819;DHT22;18384;48.860;9.188;2023-04-08T08:43:26;11.80;96.90
31819;DHT22;18384;48.860;9.188;2023-04-08T08:45:55;11.80;96.90
31819;DHT22;18384;48.860;9.188;2023-04-08T08:48:21;11.90;96.70
31819;DHT22;18384;48.860;9.188;2023-04-08T08:50:47;12.00;97.10
31819;DHT22;18384;48.860;9.188;2023-04-08T08:53:13;12.10;96.60
31819;DHT22;18384;48.860;9.188;2023-04-08T08:55:39;12.20;96.40
31819;DHT22;18384;48.860;9.188;2023-04-08T08:58:06;12.20;96.40
31819;DHT22;18384;48.860;9.188;2023-04-08T09:00:40;12.30;96.10
31819;DHT22;18384;48.860;9.188;2023-04-08T09:03:16;12.30;96.00
31819;DHT22;18384;48.860;9.188;2023-04-08T09:06:01;12.20;96.30
31819;DHT22;18384;48.860;9.188;2023-04-08T09:08:30;12.30;96.00
31819;DHT22;18384;48.860;9.188;2023-04-08T09:11:17;12.30;95.40
31819;DHT22;18384;48.860;9.188;2023-04-08T09:13:45;12.30;94.80
31819;DHT22;18384;48.860;9.188;2023-04-08T09:16:13;12.40;95.20
31819;DHT22;18384;48.860;9.188;2023-04-08T09:18:43;12.40;95.20
31819;DHT22;18384;48.860;9.188;2023-04-08T09:21:11;12.50;95.50
31819;DHT22;18384;48.860;9.188;2023-04-08T09:23:43;12.40;94.00
31819;DHT22;18384;48.860;9.188;2023-04-08T09:26:21;12.40;94.20
31819;DHT22;18384;48.860;9.188;2023-04-08T09:29:05;12.50;94.20
31819;DHT22;18384;48.860;9.188;2023-04-08T09:31:37;12.50;93.80
31819;DHT22;18384;48.860;9.188;2023-04-08T09:34:14;12.60;93.80
31819;DHT22;18384;48.860;9.188;2023-04-08T09:36:51;12.60;94.10
31819;DHT22;18384;48.860;9.188;2023-04-08T09:39:18;12.60;93.00
31819;DHT22;18384;48.860;9.188;2023-04-08T09:41:47;12.70;92.30
31819;DHT22;18384;48.860;9.188;2023-04-08T09:44:14;12.80;92.60
31819;DHT22;18384;48.860;9.188;2023-04-08T09:47:01;12.80;91.80
31819;DHT22;18384;48.860;9.188;2023-04-08T09:49:37;12.90;91.70
31819;DHT22;18384;48.860;9.188;2023-04-08T09:52:14;13.00;92.00
31819;DHT22;18384;48.860;9.188;2023-04-08T09:55:07;13.00;91.10
31819;DHT22;18384;48.860;9.188;2023-04-08T09:57:57;13.00;90.60
31819;DHT22;18384;48.860;9.188;2023-04-08T10:00:31;13.10;90.80
31819;DHT22;18384;48.860;9.188;2023-04-08T10:03:14;13.20;90.80
31819;DHT22;18384;48.860;9.188;2023-04-08T10:06:05;13.30;90.60
31819;DHT22;18384;48.860;9.188;2023-04-08T10:08:33;13.30;88.60
31819;DHT22;18384;48.860;9.188;2023-04-08T10:11:00;13.20;87.20
31819;DHT22;18384;48.860;9.188;2023-04-08T10:13:26;13.00;88.10
31819;DHT22;18384;48.860;9.188;2023-04-08T10:16:21;13.00;85.60
31819;DHT22;18384;48.860;9.188;2023-04-08T10:18:50;12.80;86.50
31819;DHT22;18384;48.860;9.188;2023-04-08T10:21:37;12.70;88.00
31819;DHT22;18384;48.860;9.188;2023-04-08T10:24:10;12.70;87.20
31819;DHT22;18384;48.860;9.188;2023-04-08T10:26:44;12.60;87.20
31819;DHT22;18384;48.860;9.188;2023-04-08T10:39:26;12.40;88.20
31819;DHT22;18384;48.860;9.188;2023-04-08T10:41:52;12.20;88.60
31819;DHT22;18384;48.860;9.188;2023-04-08T10:44:23;12.10;88.80
31819;DHT22;18384;48.860;9.188;2023-04-08T10:46:52;12.00;89.20
31819;DHT22;18384;48.860;9.188;2023-04-08T10:49:19;12.00;89.10
31819;DHT22;18384;48.860;9.188;2023-04-08T10:51:46;12.00;89.10
31819;DHT22;18384;48.860;9.188;2023-04-08T10:54:16;11.90;89.10
31819;DHT22;18384;48.860;9.188;2023-04-08T10:56:48;11.90;88.70
31819;DHT22;18384;48.860;9.188;2023-04-08T10:59:16;11.90;89.60
31819;DHT22;18384;48.860;9.188;2023-04-08T11:01:52;11.90;89.40
31819;DHT22;18384;48.860;9.188;2023-04-08T11:04:19;11.90;88.80
31819;DHT22;18384;48.860;9.188;2023-04-08T11:06:48;11.90;90.10
31819;DHT22;18384;48.860;9.188;2023-04-08T11:09:14;12.00;90.10
31819;DHT22;18384;48.860;9.188;2023-04-08T11:11:45;12.00;89.50
31819;DHT22;18384;48.860;9.188;2023-04-08T11:14:11;12.00;89.60
31819;DHT22;18384;48.860;9.188;2023-04-08T11:16:38;12.00;89.60
31819;DHT22;18384;48.860;9.188;2023-04-08T11:19:05;12.00;89.00
31819;DHT22;18384;48.860;9.188;2023-04-08T11:21:34;12.00;89.20
31819;DHT22;18384;48.860;9.188;2023-04-08T11:24:05;12.00;89.60
31819;DHT22;18384;48.860;9.188;2023-04-08T11:26:32;12.00;88.70
31819;DHT22;18384;48.860;9.188;2023-04-08T11:28:59;12.00;89.10
31819;DHT22;18384;48.860;9.188;2023-04-08T11:31:26;12.00;88.30
31819;DHT22;18384;48.860;9.188;2023-04-08T11:33:53;12.00;88.70
31819;DHT22;18384;48.860;9.188;2023-04-08T11:36:23;12.00;88.60
31819;DHT22;18384;48.860;9.188;2023-04-08T11:38:49;12.10;88.80
31819;DHT22;18384;48.860;9.188;2023-04-08T11:41:17;12.20;88.10
31819;DHT22;18384;48.860;9.188;2023-04-08T11:43:54;12.10;87.70
31819;DHT22;18384;48.860;9.188;2023-04-08T11:46:21;12.00;88.20
31819;DHT22;18384;48.860;9.188;2023-04-08T11:48:57;12.10;88.80
31819;DHT22;18384;48.860;9.188;2023-04-08T11:51:27;12.10;88.50
31819;DHT22;18384;48.860;9.188;2023-04-08T11:53:54;12.10;88.40
31819;DHT22;18384;48.860;9.188;2023-04-08T11:56:21;12.10;89.00
31819;DHT22;18384;48.860;9.188;2023-04-08T11:58:50;12.10;88.70
31819;DHT22;18384;48.860;9.188;2023-04-08T12:01:17;12.00;88.70
31819;DHT22;18384;48.860;9.188;2023-04-08T12:03:57;12.00;88.60
31819;DHT22;18384;48.860;9.188;2023-04-08T12:06:24;11.90;89.20
31819;DHT22;18384;48.860;9.188;2023-04-08T12:08:52;12.00;88.80
31819;DHT22;18384;48.860;9.188;2023-04-08T12:11:19;12.00;88.60
31819;DHT22;18384;48.860;9.188;2023-04-08T12:13:45;12.00;88.90
31819;DHT22;18384;48.860;9.188;2023-04-08T12:16:11;12.00;89.30
31819;DHT22;18384;48.860;9.188;2023-04-08T12:18:37;12.10;89.10
31819;DHT22;18384;48.860;9.188;2023-04-08T12:21:03;12.10;89.20
31819;DHT22;18384;48.860;9.188;2023-04-08T12:23:29;12.20;88.70
31819;DHT22;18384;48.860;9.188;2023-04-08T12:25:56;12.20;89.10
31819;DHT22;18384;48.860;9.188;2023-04-08T12:28:22;12.30;88.90
31819;DHT22;18384;48.860;9.188;2023-04-08T12:30:48;12.30;89.20
31819;DHT22;18384;48.860;9.188;2023-04-08T12:33:14;12.30;89.00
31819;DHT22;18384;48.860;9.188;2023-04-08T12:35:40;12.30;88.80
31819;DHT22;18384;48.860;9.188;2023-04-08T12:38:06;12.30;89.00
31819;DHT22;18384;48.860;9.188;2023-04-08T12:40:33;12.30;89.60
31819;DHT22;18384;48.860;9.188;2023-04-08T12:42:59;12.40;88.80
31819;DHT22;18384;48.860;9.188;2023-04-08T12:45:25;12.40;89.00
31819;DHT22;18384;48.860;9.188;2023-04-08T12:47:51;12.40;89.30
31819;DHT22;18384;48.860;9.188;2023-04-08T12:50:17;12.50;89.60
31819;DHT22;18384;48.860;9.188;2023-04-08T12:52:43;12.70;89.50
31819;DHT22;18384;48.860;9.188;2023-04-08T12:55:09;12.70;89.50
31819;DHT22;18384;48.860;9.188;2023-04-08T12:57:35;12.90;89.70
31819;DHT22;18384;48.860;9.188;2023-04-08T13:00:01;12.80;89.30
31819;DHT22;18384;48.860;9.188;2023-04-08T13:02:28;13.00;89.20
31819;DHT22;18384;48.860;9.188;2023-04-08T13:04:54;13.00;89.00
31819;DHT22;18384;48.860;9.188;2023-04-08T13:07:21;13.00;88.80
31819;DHT22;18384;48.860;9.188;2023-04-08T13:09:48;12.90;89.70
31819;DHT22;18384;48.860;9.188;2023-04-08T13:12:14;12.90;90.00
31819;DHT22;18384;48.860;9.188;2023-04-08T13:14:40;12.90;89.30
31819;DHT22;18384;48.860;9.188;2023-04-08T13:17:06;12.90;90.00
31819;DHT22;18384;48.860;9.188;2023-04-08T13:19:32;12.80;89.20
31819;DHT22;18384;48.860;9.188;2023-04-08T13:21:59;12.80;89.60
31819;DHT22;18384;48.860;9.188;2023-04-08T13:24:25;12.80;89.70
31819;DHT22;18384;48.860;9.188;2023-04-08T13:26:51;12.80;89.50
31819;DHT22;18384;48.860;9.188;2023-04-08T13:29:18;12.80;90.00
31819;DHT22;18384;48.860;9.188;2023-04-08T13:31:44;12.80;90.50
31819;DHT22;18384;48.860;9.188;2023-04-08T13:34:10;12.80;90.00
31819;DHT22;18384;48.860;9.188;2023-04-08T13:36:36;12.70;90.20
31819;DHT22;18384;48.860;9.188;2023-04-08T13:39:02;12.70;90.20
31819;DHT22;18384;48.860;9.188;2023-04-08T13:41:28;12.60;90.10
31819;DHT22;18384;48.860;9.188;2023-04-08T13:43:54;12.60;90.20
31819;DHT22;18384;48.860;9.188;2023-04-08T13:46:21;12.50;90.50
31819;DHT22;18384;48.860;9.188;2023-04-08T13:48:47;12.50;90.40
31819;DHT22;18384;48.860;9.188;2023-04-08T13:51:13;12.50;90.30
31819;DHT22;18384;48.860;9.188;2023-04-08T13:53:39;12.50;90.40
31819;DHT22;18384;48.860;9.188;2023-04-08T13:56:06;12.60;90.40
31819;DHT22;18384;48.860;9.188;2023-04-08T13:58:32;12.60;90.10
31819;DHT22;18384;48.860;9.188;2023-04-08T14:00:58;12.80;90.00
31819;DHT22;18384;48.860;9.188;2023-04-08T14:03:24;12.80;89.20
31819;DHT22;18384;48.860;9.188;2023-04-08T14:05:50;12.90;89.60
31819;DHT22;18384;48.860;9.188;2023-04-08T14:08:16;13.00;89.30
31819;DHT22;18384;48.860;9.188;2023-04-08T14:10:54;13.10;88.70
31819;DHT22;18384;48.860;9.188;2023-04-08T14:13:20;13.20;88.20
31819;DHT22;18384;48.860;9.188;2023-04-08T14:15:46;13.20;88.00
31819;DHT22;18384;48.860;9.188;2023-04-08T14:18:14;13.20;87.70
31819;DHT22;18384;48.860;9.188;2023-04-08T14:20:42;13.30;87.80
31819;DHT22;18384;48.860;9.188;2023-04-08T14:23:08;13.30;87.70
31819;DHT22;18384;48.860;9.188;2023-04-08T14:25:35;13.30;87.10
31819;DHT22;18384;48.860;9.188;2023-04-08T14:28:02;13.20;87.50
31819;DHT22;18384;48.860;9.188;2023-04-08T14:30:28;13.20;87.60
31819;DHT22;18384;48.860;9.188;2023-04-08T14:32:54;13.10;87.10
31819;DHT22;18384;48.860;9.188;2023-04-08T14:35:20;13.00;87.70
31819;DHT22;18384;48.860;9.188;2023-04-08T14:37:46;12.90;88.50
31819;DHT22;18384;48.860;9.188;2023-04-08T14:40:12;12.80;88.00
31819;DHT22;18384;48.860;9.188;2023-04-08T14:42:38;12.70;87.90
31819;DHT22;18384;48.860;9.188;2023-04-08T14:45:05;12.70;88.30
31819;DHT22;18384;48.860;9.188;2023-04-08T14:47:31;12.70;88.70
31819;DHT22;18384;48.860;9.188;2023-04-08T14:49:57;12.60;88.50
31819;DHT22;18384;48.860;9.188;2023-04-08T14:52:24;12.60;88.50
31819;DHT22;18384;48.860;9.188;2023-04-08T14:54:50;12.50;88.90
31819;DHT22;18384;48.860;9.188;2023-04-08T14:57:16;12.40;88.80
31819;DHT22;18384;48.860;9.188;2023-04-08T14:59:43;12.40;89.40
31819;DHT22;18384;48.860;9.188;2023-04-08T15:02:09;12.50;89.90
31819;DHT22;18384;48.860;9.188;2023-04-08T15:04:35;12.50;89.70
31819;DHT22;18384;48.860;9.188;2023-04-08T15:07:01;12.50;89.20
31819;DHT22;18384;48.860;9.188;2023-04-08T15:09:28;12.60;89.60
31819;DHT22;18384;48.860;9.188;2023-04-08T15:11:54;12.50;89.60
31819;DHT22;18384;48.860;9.188;2023-04-08T15:14:20;12.50;90.00
31819;DHT22;18384;48.860;9.188;2023-04-08T15:16:46;12.50;90.00
31819;DHT22;18384;48.860;9.188;2023-04-08T15:19:13;12.50;90.30
31819;DHT22;18384;48.860;9.188;2023-04-08T15:21:39;12.50;90.20
31819;DHT22;18384;48.860;9.188;2023-04-08T15:24:05;12.50;90.20
31819;DHT22;18384;48.860;9.188;2023-04-08T15:26:31;12.60;90.40
31819;DHT22;18384;48.860;9.188;2023-04-08T15:28:57;12.50;90.30
31819;DHT22;18384;48.860;9.188;2023-04-08T15:31:24;12.60;90.40
31819;DHT22;18384;48.860;9.188;2023-04-08T15:33:50;12.50;90.40
31819;DHT22;18384;48.860;9.188;2023-04-08T15:36:16;12.50;90.50
31819;DHT22;18384;48.860;9.188;2023-04-08T15:38:46;12.50;90.70
31819;DHT22;18384;48.860;9.188;2023-04-08T15:41:19;12.50;91.00
31819;DHT22;18384;48.860;9.188;2023-04-08T15:43:47;12.40;90.80
31819;DHT22;18384;48.860;9.188;2023-04-08T15:46:20;12.40;91.00
31819;DHT22;18384;48.860;9.188;2023-04-08T15:48:46;12.40;91.10
31819;DHT22;18384;48.860;9.188;2023-04-08T15:51:12;12.40;91.20
31819;DHT22;18384;48.860;9.188;2023-04-08T15:53:40;12.40;91.10